Time;durP1;ratioP1;P1;durP2;ratioP2;P2;SDS_P1;SDS_P2;PMS_P1;PMS_P2;Temp;Humidity;BMP_temperature;BMP_pressure;BME280_temperature;BME280_humidity;BME280_pressure;Samples;Min_cycle;Max_cycle;Signal;HPM_P1;HPM_P2
2023/10/13 00:00:36;;;;;;;7.13;3.60;;;21.60;1.00;;;;;;4956903;29;20393;-88
2023/10/13 00:03:02;;;;;;;5.70;3.50;;;21.40;1.00;;;;;;4934401;29;20406;-88
2023/10/13 00:05:30;;;;;;;5.65;3.90;;;19.70;1.00;;;;;;4955967;29;20401;-88
2023/10/13 00:08:00;;;;;;;4.07;3.67;;;19.70;1.00;;;;;;4939020;29;20402;-88
2023/10/13 00:10:27;;;;;;;6.03;3.80;;;20.10;1.00;;;;;;4938999;29;20418;-87
2023/10/13 00:12:52;;;;;;;5.65;4.10;;;20.00;1.00;;;;;;4938772;29;20754;-88
2023/10/13 00:15:21;;;;;;;3.90;3.50;;;21.10;1.00;;;;;;4928956;29;20442;-88
2023/10/13 00:17:46;;;;;;;5.22;3.60;;;20.50;1.00;;;;;;4938938;29;20403;-87
2023/10/13 00:20:28;;;;;;;7.27;4.20;;;21.40;1.00;;;;;;4941480;29;20415;-88
2023/10/13 00:22:56;;;;;;;4.80;4.30;;;19.30;1.00;;;;;;4943833;29;20423;-87
2023/10/13 00:25:27;;;;;;;5.20;3.90;;;20.90;1.00;;;;;;4947697;29;20416;-88
2023/10/13 00:27:52;;;;;;;6.07;3.80;;;20.70;1.00;;;;;;4938962;29;20398;-88
2023/10/13 00:30:22;;;;;;;6.20;4.50;;;21.10;1.00;;;;;;4938286;29;20414;-88
2023/10/13 00:32:55;;;;;;;8.75;4.90;;;20.50;1.00;;;;;;4938390;29;20416;-87
2023/10/13 00:35:36;;;;;;;6.68;4.55;;;18.80;1.00;;;;;;4955893;29;20405;-88
2023/10/13 00:38:16;;;;;;;8.00;4.60;;;21.10;1.00;;;;;;4939021;29;20474;-87
2023/10/13 00:40:52;;;;;;;6.07;4.87;;;20.60;1.00;;;;;;4938745;29;20478;-89
2023/10/13 00:45:56;;;;;;;6.50;4.07;;;18.80;1.00;;;;;;4955494;28;20394;-88
2023/10/13 00:48:32;;;;;;;6.05;3.75;;;20.30;1.00;;;;;;4938143;29;20406;-88
2023/10/13 00:51:06;;;;;;;5.00;4.38;;;18.70;1.00;;;;;;4938397;29;20421;-87
2023/10/13 00:53:34;;;;;;;6.90;3.90;;;20.00;1.00;;;;;;4938284;29;20797;-88
2023/10/13 00:56:07;;;;;;;4.68;4.05;;;18.90;1.00;;;;;;4938441;29;20825;-87
2023/10/13 00:58:38;;;;;;;6.57;3.95;;;19.50;1.00;;;;;;4937970;29;20413;-88
2023/10/13 01:01:28;;;;;;;7.88;4.43;;;17.90;1.00;;;;;;4954374;28;20485;-88
2023/10/13 01:04:04;;;;;;;6.47;4.50;;;19.80;1.00;;;;;;4937889;29;20490;-88
2023/10/13 01:06:30;;;;;;;5.90;4.40;;;18.30;1.00;;;;;;4948844;28;20430;-88
2023/10/13 01:09:14;;;;;;;8.55;4.70;;;18.00;1.00;;;;;;4955984;29;20434;-87
2023/10/13 01:11:48;;;;;;;8.65;4.35;;;18.30;1.00;;;;;;4937736;29;20425;-88
2023/10/13 01:14:17;;;;;;;7.10;4.15;;;18.20;1.00;;;;;;4933607;29;20437;-88
2023/10/13 01:16:44;;;;;;;7.20;4.78;;;20.10;1.00;;;;;;4954091;28;20398;-88
2023/10/13 01:19:16;;;;;;;5.03;4.40;;;18.50;1.00;;;;;;4955265;29;20399;-88
2023/10/13 01:21:43;;;;;;;5.88;4.20;;;19.70;1.00;;;;;;4954892;29;20406;-88
2023/10/13 01:24:10;;;;;;;5.32;4.45;;;19.80;1.00;;;;;;4937451;29;20401;-87
2023/10/13 01:26:39;;;;;;;4.63;4.10;;;18.10;1.00;;;;;;4981108;23;20436;-85
2023/10/13 01:29:12;;;;;;;7.82;4.70;;;17.60;1.00;;;;;;4972941;28;20385;-85
2023/10/13 01:31:47;;;;;;;5.65;4.07;;;17.90;1.00;;;;;;4971048;28;20412;-85
2023/10/13 01:34:22;;;;;;;6.70;4.90;;;17.60;1.00;;;;;;4982405;28;20976;-85
2023/10/13 01:36:52;;;;;;;5.68;4.10;;;17.80;1.00;;;;;;4978483;28;20427;-83
2023/10/13 01:39:20;;;;;;;6.60;4.65;;;17.60;1.00;;;;;;4972040;28;20901;-84
2023/10/13 01:41:46;;;;;;;5.77;4.07;;;19.10;1.00;;;;;;4973227;28;20397;-84
2023/10/13 01:44:11;;;;;;;7.10;4.60;;;17.30;1.00;;;;;;4964662;28;20496;-83
2023/10/13 01:46:38;;;;;;;5.95;4.18;;;17.40;1.00;;;;;;4978756;28;20394;-83
2023/10/13 01:49:03;;;;;;;6.83;4.70;;;18.50;1.00;;;;;;4987123;28;20493;-84
2023/10/13 01:51:29;;;;;;;4.70;4.03;;;19.20;1.00;;;;;;4992207;28;20424;-86
2023/10/13 01:53:57;;;;;;;6.07;4.50;;;17.20;1.00;;;;;;4981982;28;20400;-84
2023/10/13 01:56:24;;;;;;;7.05;4.40;;;17.00;1.00;;;;;;4999391;28;20449;-84
2023/10/13 01:58:50;;;;;;;6.10;4.50;;;18.40;1.00;;;;;;5002208;28;20451;-84
2023/10/13 02:01:27;;;;;;;5.72;4.28;;;16.60;1.00;;;;;;4988059;28;20396;-84
2023/10/13 02:04:03;;;;;;;6.50;4.20;;;17.80;1.00;;;;;;4962502;28;20770;-84
2023/10/13 02:06:34;;;;;;;6.10;4.50;;;16.90;1.00;;;;;;4973049;28;20400;-84
2023/10/13 02:09:12;;;;;;;10.00;5.00;;;17.90;1.00;;;;;;4954783;28;20457;-83
2023/10/13 02:11:45;;;;;;;5.10;4.40;;;16.90;1.00;;;;;;4954470;28;21000;-84
2023/10/13 02:14:11;;;;;;;6.23;5.03;;;17.20;1.00;;;;;;4954074;28;20418;-84
2023/10/13 02:16:40;;;;;;;6.38;4.55;;;16.00;1.00;;;;;;4968945;28;20409;-83
2023/10/13 02:19:05;;;;;;;6.90;4.70;;;16.60;1.00;;;;;;4976801;28;20394;-84
2023/10/13 02:21:32;;;;;;;8.23;4.83;;;16.00;1.00;;;;;;4983716;28;20400;-84
2023/10/13 02:24:03;;;;;;;6.72;4.90;;;16.20;1.00;;;;;;4961007;28;20406;-84
2023/10/13 02:26:34;;;;;;;7.13;5.15;;;15.90;1.00;;;;;;4967804;28;20854;-84
2023/10/13 02:29:07;;;;;;;8.60;5.07;;;15.90;1.00;;;;;;4973634;28;20389;-84
2023/10/13 02:31:34;;;;;;;8.13;5.10;;;16.70;1.00;;;;;;4955266;29;20461;-83
2023/10/13 02:34:01;;;;;;;6.80;5.00;;;16.20;1.00;;;;;;4968358;28;20497;-84
2023/10/13 02:36:48;;;;;;;6.25;4.65;;;15.80;1.00;;;;;;4979160;28;20933;-84
2023/10/13 02:39:17;;;;;;;7.07;4.60;;;15.70;1.00;;;;;;4985839;28;20460;-83
2023/10/13 02:41:47;;;;;;;5.90;4.47;;;15.80;1.00;;;;;;4980572;28;20395;-83
2023/10/13 02:44:20;;;;;;;7.18;4.97;;;15.70;1.00;;;;;;4977383;28;20412;-83
2023/10/13 02:46:50;;;;;;;4.82;4.32;;;15.70;1.00;;;;;;4978520;28;20406;-84
2023/10/13 02:49:19;;;;;;;7.23;4.30;;;15.70;1.00;;;;;;4983396;28;20409;-84
2023/10/13 02:51:44;;;;;;;6.97;4.30;;;15.40;1.00;;;;;;4992597;28;20478;-84
2023/10/13 02:54:11;;;;;;;6.43;5.00;;;17.20;1.00;;;;;;4961765;28;20434;-83
2023/10/13 02:56:37;;;;;;;10.43;4.90;;;15.70;1.00;;;;;;4972915;28;20435;-84
2023/10/13 02:59:06;;;;;;;5.45;4.40;;;18.20;1.00;;;;;;4972863;28;20857;-83
2023/10/13 03:01:36;;;;;;;7.07;4.82;;;17.70;1.00;;;;;;4973173;28;20934;-83
2023/10/13 03:04:03;;;;;;;8.98;4.70;;;17.20;1.00;;;;;;4966144;28;20815;-83
2023/10/13 03:06:32;;;;;;;5.50;4.90;;;15.80;1.00;;;;;;4953245;29;20468;-83
2023/10/13 03:09:13;;;;;;;7.77;4.80;;;15.30;1.00;;;;;;4956822;28;20411;-86
2023/10/13 03:11:42;;;;;;;6.00;4.50;;;15.40;1.00;;;;;;4964439;28;20422;-86
2023/10/13 03:14:15;;;;;;;5.38;4.10;;;16.60;1.00;;;;;;4970857;28;20412;-86
2023/10/13 03:16:41;;;;;;;6.88;5.10;;;16.40;1.00;;;;;;4973741;28;20491;-86
2023/10/13 03:19:09;;;;;;;7.17;5.20;;;15.30;1.00;;;;;;4972938;28;20452;-85
2023/10/13 03:21:36;;;;;;;5.97;4.20;;;15.50;1.00;;;;;;4973890;28;20446;-86
2023/10/13 03:24:06;;;;;;;7.28;4.60;;;16.60;1.00;;;;;;4959121;28;20413;-86
2023/10/13 03:26:37;;;;;;;6.40;4.50;;;15.80;1.00;;;;;;4953666;28;20959;-86
2023/10/13 03:29:07;;;;;;;8.32;4.13;;;16.10;1.00;;;;;;4954988;29;20398;-86
2023/10/13 03:31:36;;;;;;;7.47;4.90;;;15.70;1.00;;;;;;4953281;29;20405;-86
2023/10/13 03:34:04;;;;;;;5.10;4.50;;;15.30;1.00;;;;;;4968181;28;21180;-86
2023/10/13 03:39:14;;;;;;;7.28;4.25;;;15.40;1.00;;;;;;4977031;28;20419;-86
2023/10/13 03:41:40;;;;;;;5.95;4.00;;;15.20;1.00;;;;;;4975085;28;20399;-86
2023/10/13 03:44:13;;;;;;;5.83;4.50;;;15.40;1.00;;;;;;4972790;28;20409;-86
2023/10/13 03:46:42;;;;;;;5.47;4.22;;;15.40;1.00;;;;;;4974110;28;20453;-86
2023/10/13 03:49:12;;;;;;;8.27;4.80;;;15.20;1.00;;;;;;4982259;28;20452;-86
2023/10/13 03:51:39;;;;;;;6.63;5.10;;;15.20;1.00;;;;;;4990873;28;20411;-86
2023/10/13 03:54:08;;;;;;;5.85;4.20;;;15.60;1.00;;;;;;4984560;28;20396;-86
2023/10/13 03:56:41;;;;;;;6.47;4.50;;;15.20;1.00;;;;;;4976839;28;20505;-86
2023/10/13 03:59:18;;;;;;;5.60;4.32;;;15.20;1.00;;;;;;4978086;28;20427;-86
2023/10/13 04:04:15;;;;;;;8.20;4.47;;;14.90;1.00;;;;;;4965309;28;20420;-86
2023/10/13 04:06:51;;;;;;;6.20;4.10;;;16.30;1.00;;;;;;4957992;29;20401;-86
2023/10/13 04:12:19;;;;;;;7.13;4.70;;;15.00;1.00;;;;;;4958531;29;20420;-84
2023/10/13 04:17:25;;;;;;;5.55;4.40;;;15.20;1.00;;;;;;4986515;28;20411;-84
2023/10/13 04:25:38;;;;;;;5.63;4.57;;;15.30;1.00;;;;;;4989745;28;20420;-84
2023/10/13 04:33:43;;;;;;;7.65;4.63;;;15.10;1.00;;;;;;4974622;28;20447;-86
2023/10/13 04:36:16;;;;;;;6.88;4.70;;;14.90;1.00;;;;;;4978744;28;20426;-86
2023/10/13 04:41:31;;;;;;;6.55;4.30;;;15.00;1.00;;;;;;4987098;28;20764;-86
2023/10/13 04:51:58;;;;;;;8.82;4.72;;;14.60;1.00;;;;;;4996422;28;20409;-85
2023/10/13 04:54:33;;;;;;;6.45;4.30;;;14.80;1.00;;;;;;4982328;28;20443;-85
2023/10/13 04:57:23;;;;;;;7.95;4.38;;;14.80;1.00;;;;;;4972434;28;20486;-85
2023/10/13 06:29:40;;;;;;;5.77;3.80;;;14.50;1.00;;;;;;4963573;29;20466;-84
2023/10/13 06:32:12;;;;;;;8.40;4.57;;;14.70;1.00;;;;;;4962691;29;20394;-84
2023/10/13 06:34:37;;;;;;;5.80;3.90;;;14.30;1.00;;;;;;4962246;28;20406;-84
2023/10/13 06:37:22;;;;;;;4.95;3.45;;;14.50;1.00;;;;;;4964953;29;20425;-85
2023/10/13 06:39:52;;;;;;;7.43;4.53;;;14.80;1.00;;;;;;4963772;29;20440;-84
2023/10/13 06:42:19;;;;;;;5.93;3.92;;;14.40;1.00;;;;;;4963943;29;20422;-84
2023/10/13 06:44:46;;;;;;;6.60;3.57;;;14.40;1.00;;;;;;4971219;28;20442;-84
2023/10/13 06:47:44;;;;;;;4.90;3.60;;;15.20;1.00;;;;;;4982481;28;20392;-87
2023/10/13 06:50:15;;;;;;;6.72;4.18;;;15.60;1.00;;;;;;4981690;28;20423;-84
2023/10/13 06:52:42;;;;;;;7.80;4.10;;;18.30;1.00;;;;;;4983937;28;20455;-83
2023/10/13 06:55:10;;;;;;;5.75;3.92;;;14.50;1.00;;;;;;4966088;29;20396;-85
2023/10/13 06:57:36;;;;;;;6.28;3.90;;;18.40;1.00;;;;;;4963031;29;20389;-84
2023/10/13 07:00:07;;;;;;;5.20;3.70;;;15.10;1.00;;;;;;4965343;28;20410;-85
2023/10/13 07:02:34;;;;;;;6.18;4.18;;;15.40;1.00;;;;;;4965358;29;20400;-83
2023/10/13 07:05:11;;;;;;;8.15;3.90;;;14.90;1.00;;;;;;4965684;29;20400;-84
2023/10/13 07:07:39;;;;;;;6.78;3.72;;;15.40;1.00;;;;;;4964142;29;20426;-83
2023/10/13 07:10:13;;;;;;;10.27;4.18;;;15.10;1.00;;;;;;4963871;28;20422;-83
2023/10/13 07:12:43;;;;;;;5.63;4.07;;;15.50;1.00;;;;;;4962009;28;20422;-84
2023/10/13 07:15:19;;;;;;;6.40;3.70;;;15.10;1.00;;;;;;4968593;28;20900;-84
2023/10/13 07:17:54;;;;;;;5.63;3.90;;;15.00;1.00;;;;;;4977517;28;20388;-84
2023/10/13 07:23:02;;;;;;;5.38;3.72;;;15.80;1.00;;;;;;4974766;28;20439;-84
2023/10/13 07:25:38;;;;;;;6.10;3.97;;;15.30;1.00;;;;;;4979940;28;20516;-83
2023/10/13 07:28:04;;;;;;;6.53;3.80;;;15.60;1.00;;;;;;4994225;23;20448;-77
2023/10/13 07:30:41;;;;;;;9.57;3.87;;;15.70;1.00;;;;;;4955457;28;20408;-79
2023/10/13 07:33:10;;;;;;;6.00;3.80;;;15.60;1.00;;;;;;4954334;28;20494;-76
2023/10/13 07:35:37;;;;;;;6.65;4.00;;;15.90;1.00;;;;;;4972777;28;20388;-77
2023/10/13 07:38:07;;;;;;;7.20;3.78;;;15.90;1.00;;;;;;4971900;28;20438;-77
2023/10/13 07:43:03;;;;;;;7.00;3.78;;;16.20;1.00;;;;;;4971434;28;20412;-79
2023/10/13 07:45:38;;;;;;;5.53;3.50;;;16.00;1.00;;;;;;4972258;28;20483;-79
2023/10/13 07:48:20;;;;;;;9.52;4.13;;;16.40;1.00;;;;;;4954989;28;20912;-76
2023/10/13 07:51:01;;;;;;;6.97;4.55;;;16.40;1.00;;;;;;4953821;28;20420;-77
2023/10/13 07:53:34;;;;;;;7.57;3.70;;;16.60;1.00;;;;;;4971375;28;20400;-77
2023/10/13 07:56:02;;;;;;;7.82;4.35;;;16.40;1.00;;;;;;4971201;28;20880;-76
2023/10/13 07:58:28;;;;;;;5.25;3.72;;;16.40;1.00;;;;;;4973405;28;20396;-76
2023/10/13 08:01:16;;;;;;;6.93;3.40;;;16.50;1.00;;;;;;4975214;28;20418;-77
2023/10/13 08:03:45;;;;;;;6.80;3.40;;;16.90;1.00;;;;;;4975069;28;20388;-77
2023/10/13 08:08:38;;;;;;;8.77;3.60;;;17.20;1.00;;;;;;4975194;28;20396;-77
2023/10/13 08:14:11;;;;;;;7.10;3.40;;;17.50;1.00;;;;;;4975090;28;20396;-77
2023/10/13 08:17:12;;;;;;;5.50;3.58;;;17.60;1.00;;;;;;4974996;28;20396;-77
2023/10/13 08:19:45;;;;;;;7.55;3.80;;;17.60;1.00;;;;;;4972740;28;20422;-77
2023/10/13 08:22:23;;;;;;;5.20;3.80;;;17.80;1.00;;;;;;4974625;28;20400;-77
2023/10/13 08:27:34;;;;;;;6.93;3.75;;;17.90;1.00;;;;;;4974676;28;20404;-77
2023/10/13 08:38:28;;;;;;;6.20;3.40;;;18.70;1.00;;;;;;4974594;28;20792;-77
2023/10/13 08:43:13;;;;;;;6.43;3.65;;;18.80;1.00;;;;;;4974786;28;20943;-77
2023/10/13 08:48:15;;;;;;;4.40;3.28;;;19.00;1.00;;;;;;4977542;28;20423;-77
2023/10/13 08:53:33;;;;;;;8.27;3.78;;;19.20;1.00;;;;;;4974552;28;20443;-77
2023/10/13 08:56:34;;;;;;;4.00;3.33;;;19.30;1.00;;;;;;4974180;28;20427;-77
2023/10/13 08:59:05;;;;;;;7.38;3.63;;;19.30;1.00;;;;;;4974360;28;20450;-77
2023/10/13 09:01:48;;;;;;;6.82;3.60;;;21.40;1.00;;;;;;4956518;28;20400;-77
2023/10/13 09:09:39;;;;;;;8.07;3.15;;;20.00;1.00;;;;;;4973125;28;20446;-77
2023/10/13 09:12:19;;;;;;;6.95;3.30;;;20.10;1.00;;;;;;4955800;28;20813;-77
2023/10/13 09:17:42;;;;;;;5.43;3.20;;;20.70;1.00;;;;;;4973713;28;20474;-77
2023/10/13 09:25:33;;;;;;;5.90;2.67;;;21.20;1.00;;;;;;4973895;28;20461;-77
2023/10/13 09:28:00;;;;;;;5.85;3.00;;;21.30;1.00;;;;;;4972704;28;21013;-77
2023/10/13 09:30:28;;;;;;;6.87;3.50;;;21.50;1.00;;;;;;4955424;28;20785;-77
2023/10/13 09:33:04;;;;;;;9.90;3.75;;;21.70;1.00;;;;;;4955103;28;20893;-77
2023/10/13 09:35:33;;;;;;;6.15;3.28;;;21.50;1.00;;;;;;4954863;28;20400;-78
2023/10/13 09:38:02;;;;;;;7.55;3.28;;;21.50;1.00;;;;;;4972495;28;20386;-78
2023/10/13 09:43:17;;;;;;;4.20;2.80;;;22.60;1.00;;;;;;4942535;28;20396;-77
2023/10/13 09:48:46;;;;;;;6.95;3.65;;;23.00;1.00;;;;;;4973175;28;20391;-78
2023/10/13 09:51:13;;;;;;;4.43;3.03;;;22.90;1.00;;;;;;4972050;28;20498;-77
2023/10/13 09:53:44;;;;;;;5.90;2.88;;;23.20;1.00;;;;;;4972269;28;20391;-77
2023/10/13 09:56:19;;;;;;;6.10;3.30;;;23.50;1.00;;;;;;4973152;28;20393;-78
2023/10/13 09:59:00;;;;;;;7.30;3.03;;;23.40;1.00;;;;;;4972925;28;20403;-78
2023/10/13 10:01:31;;;;;;;8.43;3.60;;;23.70;1.00;;;;;;4973781;28;20407;-78
2023/10/13 10:04:16;;;;;;;6.15;3.42;;;23.20;1.00;;;;;;4975124;28;20392;-77
2023/10/13 10:06:56;;;;;;;5.40;3.33;;;23.30;1.00;;;;;;4978401;28;20411;-77
2023/10/13 10:09:34;;;;;;;4.30;3.10;;;23.40;1.00;;;;;;4974723;28;20415;-77
2023/10/13 10:12:21;;;;;;;4.93;3.00;;;23.40;1.00;;;;;;4973718;28;20416;-77
2023/10/13 10:15:13;;;;;;;7.05;2.80;;;23.80;1.00;;;;;;4954854;28;20407;-77
2023/10/13 10:17:43;;;;;;;6.78;3.30;;;23.80;1.00;;;;;;4971995;28;20481;-78
2023/10/13 10:20:19;;;;;;;7.25;3.20;;;24.60;1.00;;;;;;4955142;28;20811;-78
2023/10/13 10:22:58;;;;;;;9.60;3.90;;;24.20;1.00;;;;;;4971752;28;20482;-78
2023/10/13 10:25:29;;;;;;;4.95;3.30;;;24.20;1.00;;;;;;4971305;28;20958;-77
2023/10/13 10:27:59;;;;;;;5.73;3.30;;;25.00;1.00;;;;;;4895651;28;1739444;-77
2023/10/13 10:30:29;;;;;;;6.20;3.65;;;25.50;1.00;;;;;;4972641;28;20753;-77
2023/10/13 10:33:06;;;;;;;5.57;3.30;;;25.40;1.00;;;;;;4972321;28;20920;-78
2023/10/13 10:35:32;;;;;;;5.20;2.90;;;25.50;1.00;;;;;;4972791;28;20380;-78
2023/10/13 10:41:00;;;;;;;5.78;3.10;;;25.80;1.00;;;;;;4973189;28;20395;-78
2023/10/13 10:43:47;;;;;;;4.60;2.70;;;26.10;1.00;;;;;;4953396;29;20386;-77
2023/10/13 10:46:16;;;;;;;4.68;2.70;;;26.30;1.00;;;;;;4972596;28;20419;-77
2023/10/13 10:48:44;;;;;;;6.15;2.90;;;26.60;1.00;;;;;;4973051;28;20443;-77
2023/10/13 10:53:46;;;;;;;7.70;3.30;;;26.80;1.00;;;;;;4973379;28;20450;-78
2023/10/13 10:56:19;;;;;;;6.87;3.40;;;27.30;1.00;;;;;;4955433;28;20820;-78
2023/10/13 10:58:46;;;;;;;7.65;3.22;;;27.40;1.00;;;;;;4955075;28;20448;-78
2023/10/13 11:01:18;;;;;;;6.10;3.10;;;27.30;1.00;;;;;;4972470;28;20391;-77
2023/10/13 11:03:57;;;;;;;6.95;3.33;;;28.00;1.00;;;;;;4972684;28;20924;-77
2023/10/13 11:06:26;;;;;;;4.45;3.35;;;27.70;1.00;;;;;;4972415;28;20768;-77
2023/10/13 11:11:57;;;;;;;3.10;2.80;;;28.90;1.00;;;;;;4971792;28;20415;-79
2023/10/13 11:14:30;;;;;;;4.10;2.60;;;29.60;1.00;;;;;;4972075;28;20800;-77
2023/10/13 11:17:00;;;;;;;4.70;2.83;;;29.80;1.00;;;;;;4955482;28;20443;-78
2023/10/13 11:19:35;;;;;;;4.00;2.60;;;29.90;1.00;;;;;;4973478;28;20403;-79
2023/10/13 11:22:33;;;;;;;6.05;3.13;;;29.70;1.00;;;;;;4954740;28;20403;-77
2023/10/13 11:25:00;;;;;;;4.30;3.10;;;30.10;1.00;;;;;;4972998;28;20776;-78
2023/10/13 11:30:20;;;;;;;3.72;2.85;;;30.30;1.00;;;;;;4977123;28;20423;-77
2023/10/13 11:33:06;;;;;;;5.43;3.00;;;31.10;1.00;;;;;;4967631;28;20954;-78
2023/10/13 11:38:26;;;;;;;5.50;2.80;;;31.10;1.00;;;;;;4987799;28;20393;-78
2023/10/13 11:46:15;;;;;;;3.45;2.75;;;30.90;1.00;;;;;;4975847;28;20411;-77
2023/10/13 11:48:44;;;;;;;4.72;2.80;;;31.40;1.00;;;;;;4976326;28;20486;-78
2023/10/13 11:51:17;;;;;;;3.30;2.72;;;32.00;1.00;;;;;;4975943;28;20542;-78
2023/10/13 11:53:45;;;;;;;5.80;3.00;;;32.10;1.00;;;;;;4976467;28;20804;-78
2023/10/13 11:56:10;;;;;;;7.07;2.50;;;32.30;1.00;;;;;;4976566;28;20454;-78
2023/10/13 11:58:37;;;;;;;6.80;2.80;;;32.00;1.00;;;;;;4959593;28;20392;-78
2023/10/13 12:11:51;;;;;;;5.37;2.80;;;30.50;1.00;;;;;;4975031;28;20466;-77
2023/10/13 12:14:21;;;;;;;5.88;3.50;;;30.70;1.00;;;;;;4975198;28;20388;-78
2023/10/13 12:16:51;;;;;;;4.70;2.85;;;30.60;1.00;;;;;;4958214;28;20505;-77
2023/10/13 12:19:23;;;;;;;5.72;3.30;;;30.80;1.00;;;;;;4975176;28;20844;-78
2023/10/13 12:21:55;;;;;;;3.40;3.10;;;30.60;1.00;;;;;;4975066;28;20411;-77
2023/10/13 12:27:18;;;;;;;3.33;2.53;;;30.70;1.00;;;;;;4975054;28;20528;-79
2023/10/13 12:29:47;;;;;;;5.40;2.90;;;30.40;1.00;;;;;;4955994;28;20434;-78
2023/10/13 12:32:14;;;;;;;4.70;3.00;;;30.10;1.00;;;;;;4972835;28;20408;-78
2023/10/13 12:51:20;;;;;;;4.72;2.72;;;30.60;1.00;;;;;;4974941;28;20411;-77
2023/10/13 12:53:49;;;;;;;5.57;2.95;;;30.30;1.00;;;;;;4971529;28;20805;-77
2023/10/13 12:56:16;;;;;;;5.82;2.88;;;31.10;1.00;;;;;;4966248;28;20412;-78
2023/10/13 12:58:51;;;;;;;5.57;3.00;;;31.30;1.00;;;;;;4978649;28;20391;-78
2023/10/13 13:01:21;;;;;;;4.17;2.30;;;31.20;1.00;;;;;;4975418;28;20876;-78
2023/10/13 13:03:50;;;;;;;6.00;2.90;;;31.70;1.00;;;;;;4975233;28;20440;-78
2023/10/13 13:06:17;;;;;;;4.78;3.05;;;31.60;1.00;;;;;;4973777;28;20399;-78
2023/10/13 13:08:44;;;;;;;6.78;3.05;;;31.70;1.00;;;;;;4975380;28;20468;-77
2023/10/13 13:11:11;;;;;;;5.40;2.80;;;30.40;1.00;;;;;;4959557;28;20412;-77
2023/10/13 13:13:36;;;;;;;4.40;2.80;;;30.70;1.00;;;;;;4974937;28;20756;-77
2023/10/13 13:16:03;;;;;;;3.40;2.45;;;30.30;1.00;;;;;;4974789;28;20400;-77
2023/10/13 13:18:29;;;;;;;3.38;2.60;;;30.10;1.00;;;;;;4974060;28;20769;-78
2023/10/13 13:20:55;;;;;;;4.83;2.50;;;30.30;1.00;;;;;;4974655;28;20392;-78
2023/10/13 13:23:26;;;;;;;5.35;2.80;;;30.90;1.00;;;;;;4957857;28;20922;-78
2023/10/13 13:25:52;;;;;;;3.90;2.55;;;30.70;1.00;;;;;;4963019;28;20396;-77
2023/10/13 13:28:18;;;;;;;4.10;2.70;;;29.90;1.00;;;;;;5007633;23;20545;-87
2023/10/13 13:30:46;;;;;;;5.20;2.83;;;30.00;1.00;;;;;;4983386;28;20990;-87
2023/10/13 13:33:11;;;;;;;4.95;3.20;;;31.60;1.00;;;;;;4981019;28;20392;-88
2023/10/13 13:35:43;;;;;;;7.20;2.60;;;31.30;1.00;;;;;;4998902;28;20441;-87
2023/10/13 13:38:21;;;;;;;4.65;2.92;;;30.50;1.00;;;;;;4977395;28;20402;-87
2023/10/13 13:40:53;;;;;;;5.57;2.80;;;29.60;1.00;;;;;;4980288;28;20394;-87
2023/10/13 13:44:13;;;;;;;4.00;2.70;;;31.70;1.00;;;;;;4988284;28;20398;-85
2023/10/13 13:46:11;;;;;;;5.25;2.50;;;30.20;1.00;;;;;;4975250;28;20402;-86
2023/10/13 13:48:37;;;;;;;4.40;2.50;;;29.70;1.00;;;;;;4978782;28;20450;-86
2023/10/13 13:51:14;;;;;;;5.13;2.53;;;30.80;1.00;;;;;;4980560;28;20411;-88
2023/10/13 13:53:44;;;;;;;4.38;2.50;;;30.10;1.00;;;;;;4984694;28;20577;-89
2023/10/13 13:56:10;;;;;;;4.70;2.93;;;30.20;1.00;;;;;;4976462;28;20420;-87
2023/10/13 13:58:38;;;;;;;4.13;2.58;;;30.80;1.00;;;;;;4980466;28;20450;-86
2023/10/13 14:01:21;;;;;;;4.47;3.10;;;32.00;1.00;;;;;;4995018;28;20399;-86
2023/10/13 14:03:51;;;;;;;4.05;2.72;;;31.40;1.00;;;;;;4979841;28;20481;-83
2023/10/13 14:06:23;;;;;;;4.70;2.80;;;30.30;1.00;;;;;;4980919;28;20433;-86
2023/10/13 14:09:15;;;;;;;7.00;3.20;;;31.00;1.00;;;;;;4981914;28;20394;-86
2023/10/13 14:16:59;;;;;;;6.63;2.97;;;31.70;1.00;;;;;;5009378;28;20402;-87
2023/10/13 14:19:28;;;;;;;6.07;2.93;;;29.60;1.00;;;;;;4998266;28;20398;-86
2023/10/13 14:22:06;;;;;;;5.75;3.00;;;30.90;1.00;;;;;;4981139;28;20418;-87
2023/10/13 14:27:30;;;;;;;6.57;2.75;;;31.20;1.00;;;;;;5008872;28;20823;-85
2023/10/13 14:29:57;;;;;;;5.20;3.00;;;30.70;1.00;;;;;;4999337;28;20397;-86
2023/10/13 14:32:24;;;;;;;4.83;3.00;;;30.90;1.00;;;;;;4999885;28;20390;-87
2023/10/13 14:34:54;;;;;;;3.72;2.20;;;30.60;1.00;;;;;;5004268;28;20464;-86
2023/10/13 14:37:30;;;;;;;3.70;2.75;;;29.70;1.00;;;;;;5001974;28;20397;-87
2023/10/13 14:40:02;;;;;;;4.07;2.78;;;29.70;1.00;;;;;;5018376;28;20747;-87
2023/10/13 14:42:28;;;;;;;5.57;2.80;;;30.60;1.00;;;;;;4996286;28;20389;-86
2023/10/13 14:44:57;;;;;;;4.85;2.60;;;29.50;1.00;;;;;;4994301;28;20430;-85
2023/10/13 14:47:32;;;;;;;4.53;2.90;;;29.30;1.00;;;;;;4986903;28;20461;-87
2023/10/13 14:49:59;;;;;;;6.80;2.75;;;29.20;1.00;;;;;;4970295;28;20915;-85
2023/10/13 14:52:25;;;;;;;6.07;2.70;;;29.30;1.00;;;;;;4975005;28;20831;-85
2023/10/13 14:54:55;;;;;;;3.67;2.38;;;30.30;1.00;;;;;;4977810;28;20410;-86
2023/10/13 14:57:38;;;;;;;3.15;2.00;;;31.00;1.00;;;;;;4974373;28;20415;-86
2023/10/13 15:00:13;;;;;;;3.58;2.55;;;30.70;1.00;;;;;;4989229;28;20410;-86
2023/10/13 15:02:38;;;;;;;4.50;3.10;;;29.20;1.00;;;;;;4976080;28;20403;-86
2023/10/13 15:05:04;;;;;;;5.32;2.42;;;29.70;1.00;;;;;;4976468;28;20383;-86
2023/10/13 15:07:30;;;;;;;3.90;2.50;;;29.30;1.00;;;;;;4976757;28;20391;-86
2023/10/13 15:09:57;;;;;;;2.93;2.40;;;30.70;1.00;;;;;;4995107;28;20851;-86
2023/10/13 15:12:22;;;;;;;4.03;2.53;;;29.40;1.00;;;;;;4975976;28;20406;-86
2023/10/13 15:14:48;;;;;;;3.28;2.50;;;30.90;1.00;;;;;;4994222;28;20386;-86
2023/10/13 15:17:16;;;;;;;5.10;2.80;;;29.50;1.00;;;;;;4976983;28;20394;-86
2023/10/13 15:19:42;;;;;;;8.10;2.90;;;29.00;1.00;;;;;;4976240;28;20413;-86
2023/10/13 15:22:16;;;;;;;6.00;2.80;;;29.00;1.00;;;;;;4992697;28;20390;-86
2023/10/13 15:24:45;;;;;;;4.60;2.40;;;31.30;1.00;;;;;;4976275;28;20403;-85
2023/10/13 15:27:11;;;;;;;6.57;2.80;;;30.20;1.00;;;;;;4976025;28;20440;-86
2023/10/13 15:29:37;;;;;;;5.60;2.88;;;28.70;1.00;;;;;;4993058;28;20421;-84
2023/10/13 15:34:28;;;;;;;3.22;2.30;;;28.40;1.00;;;;;;4993141;28;20516;-86
2023/10/13 15:36:56;;;;;;;3.90;2.40;;;28.00;1.00;;;;;;4987366;28;20429;-85
2023/10/13 15:39:28;;;;;;;3.00;2.50;;;27.20;1.00;;;;;;5013606;28;20383;-85
2023/10/13 15:41:58;;;;;;;4.28;2.70;;;28.30;1.00;;;;;;4983619;28;20890;-85
2023/10/13 15:44:25;;;;;;;6.25;2.97;;;27.30;1.00;;;;;;4978495;28;20471;-86
2023/10/13 15:47:06;;;;;;;6.15;2.90;;;27.60;1.00;;;;;;4967624;28;20426;-85
2023/10/13 15:49:33;;;;;;;6.55;2.92;;;27.00;1.00;;;;;;4996041;28;20387;-85
2023/10/13 15:52:18;;;;;;;7.60;3.40;;;25.80;1.00;;;;;;4996043;28;20469;-85
2023/10/13 15:54:47;;;;;;;5.10;2.97;;;26.00;1.00;;;;;;4993829;28;20774;-86
2023/10/13 15:57:16;;;;;;;4.85;3.70;;;27.20;1.00;;;;;;4975980;28;20469;-86
2023/10/13 15:59:45;;;;;;;5.38;3.45;;;25.20;1.00;;;;;;4992254;28;20941;-87
2023/10/13 16:02:11;;;;;;;5.78;3.30;;;25.00;1.00;;;;;;4974936;28;20390;-86
2023/10/13 16:04:37;;;;;;;6.43;3.70;;;26.10;1.00;;;;;;4974833;28;20453;-86
2023/10/13 16:07:03;;;;;;;4.10;3.30;;;23.90;1.00;;;;;;4975130;28;20402;-86
2023/10/13 16:09:33;;;;;;;6.50;3.55;;;23.60;1.00;;;;;;4976035;28;20405;-87
2023/10/13 16:11:59;;;;;;;5.82;3.03;;;23.10;1.00;;;;;;4975646;28;20445;-86
2023/10/13 16:14:24;;;;;;;5.43;3.35;;;24.30;1.00;;;;;;4995181;28;20886;-87
2023/10/13 16:16:52;;;;;;;6.90;3.70;;;25.80;1.00;;;;;;4993222;28;20408;-86
2023/10/13 16:19:22;;;;;;;6.00;3.07;;;24.20;1.00;;;;;;4977789;28;20998;-86
2023/10/13 16:21:49;;;;;;;6.45;3.40;;;23.60;1.00;;;;;;4982378;28;20395;-87
2023/10/13 16:24:18;;;;;;;7.85;3.75;;;24.00;1.00;;;;;;4983784;28;20392;-86
2023/10/13 16:26:52;;;;;;;8.43;4.07;;;22.50;1.00;;;;;;4998504;28;20400;-86
2023/10/13 16:29:18;;;;;;;6.28;3.58;;;22.30;1.00;;;;;;4998454;28;20754;-87
2023/10/13 16:31:45;;;;;;;6.73;4.07;;;23.80;1.00;;;;;;4998520;28;20409;-86
2023/10/13 16:34:17;;;;;;;5.45;3.38;;;21.80;1.00;;;;;;5004062;28;20389;-86
2023/10/13 16:36:44;;;;;;;5.73;3.60;;;22.60;1.00;;;;;;5001791;28;20397;-86
2023/10/13 16:39:11;;;;;;;5.30;3.40;;;23.30;1.00;;;;;;5024644;28;20385;-86
2023/10/13 16:41:37;;;;;;;6.57;3.90;;;22.60;1.00;;;;;;4986757;28;20410;-85
2023/10/13 16:44:09;;;;;;;7.93;3.90;;;22.90;1.00;;;;;;4976193;28;20470;-86
2023/10/13 16:46:37;;;;;;;8.67;4.27;;;21.70;1.00;;;;;;4979893;28;20387;-86
2023/10/13 16:49:03;;;;;;;11.48;4.38;;;21.30;1.00;;;;;;4980076;28;20391;-86
2023/10/13 16:51:29;;;;;;;10.63;4.10;;;21.40;1.00;;;;;;4987526;28;20441;-87
2023/10/13 16:53:55;;;;;;;6.37;3.80;;;23.30;1.00;;;;;;4978113;28;20398;-86
2023/10/13 16:56:22;;;;;;;5.57;3.80;;;20.60;1.00;;;;;;4979719;28;20394;-85
2023/10/13 16:58:48;;;;;;;7.60;4.40;;;21.40;1.00;;;;;;4984104;28;20389;-86
2023/10/13 17:01:17;;;;;;;10.82;4.60;;;20.90;1.00;;;;;;4983208;28;20398;-87
2023/10/13 17:03:46;;;;;;;10.40;4.47;;;20.90;1.00;;;;;;4978828;28;20933;-87
2023/10/13 17:06:12;;;;;;;6.07;4.07;;;21.00;1.00;;;;;;4996501;28;20457;-85
2023/10/13 17:08:38;;;;;;;8.93;4.22;;;22.30;1.00;;;;;;4978138;28;20397;-86
2023/10/13 17:11:11;;;;;;;7.03;4.20;;;24.30;1.00;;;;;;4988752;28;20410;-86